AFL1887 UCFM-UUEE
Flight info
| Callsign | AFL1887 |
|---|---|
| Flight time | N/A |
| Altitude | 34000 |
| Route | BASAN2 BASAN L147 TOMGO Z370 RISAS L855 TUROK L728 GEDSA L147 EKTOB M199 MULTA M162 PODUT T750 OKSUD T787 OTKOL T784 LARNO T291 URIDU L158 DIMGI DIMGI3E |
| Aircraft | A21N/M-SADIE2E3FHJ1RWGY/LB1U1 |
Departure
| Time | 2026-04-21 12:20 |
|---|---|
| Airport | Manas International Airport (UCFM) |
Arrival
| Time | N/A |
|---|---|
| Airport | Sheremetyevo International Airport (UUEE) |
| Time | Latitude | Longitude | Altitude | Speed | Heading |
|---|---|---|---|---|---|
| 2026-04-21 11:20 | 43.05493 | 74.46962 | 2074 ft | 0 kts | 168° |
| 2026-04-21 12:06 | 43.05499 | 74.46961 | 2073 ft | 4 kts | 168° |
| 2026-04-21 12:06 | 43.05525 | 74.46953 | 2074 ft | 4 kts | 171° |
| 2026-04-21 12:07 | 43.05552 | 74.46948 | 2074 ft | 4 kts | 173° |
| 2026-04-21 12:07 | 43.05574 | 74.46945 | 2072 ft | 1 kts | 174° |
| 2026-04-21 12:07 | 43.05579 | 74.46944 | 2072 ft | 0 kts | 174° |
| 2026-04-21 12:12 | 43.05575 | 74.46945 | 2074 ft | 2 kts | 171° |
| 2026-04-21 12:12 | 43.05577 | 74.46975 | 2070 ft | 5 kts | 58° |
| 2026-04-21 12:12 | 43.05592 | 74.47038 | 2072 ft | 9 kts | 80° |
| 2026-04-21 12:13 | 43.05604 | 74.47137 | 2072 ft | 12 kts | 81° |
| 2026-04-21 12:13 | 43.05652 | 74.47187 | 2072 ft | 10 kts | 348° |
| 2026-04-21 12:13 | 43.05727 | 74.47168 | 2073 ft | 12 kts | 351° |
| 2026-04-21 12:13 | 43.05808 | 74.47150 | 2074 ft | 8 kts | 355° |
| 2026-04-21 12:14 | 43.05847 | 74.47208 | 2072 ft | 10 kts | 79° |
| 2026-04-21 12:14 | 43.05860 | 74.47315 | 2074 ft | 13 kts | 80° |
| 2026-04-21 12:14 | 43.05877 | 74.47442 | 2070 ft | 15 kts | 79° |
| 2026-04-21 12:14 | 43.05898 | 74.47592 | 2074 ft | 17 kts | 81° |
| 2026-04-21 12:15 | 43.05918 | 74.47765 | 2074 ft | 19 kts | 79° |
| 2026-04-21 12:15 | 43.05944 | 74.47953 | 2074 ft | 21 kts | 80° |
| 2026-04-21 12:15 | 43.05971 | 74.48163 | 2072 ft | 23 kts | 80° |
| 2026-04-21 12:15 | 43.05998 | 74.48377 | 2074 ft | 16 kts | 80° |
| 2026-04-21 12:16 | 43.06041 | 74.48510 | 2074 ft | 16 kts | 49° |
| 2026-04-21 12:16 | 43.06118 | 74.48629 | 2074 ft | 17 kts | 49° |
| 2026-04-21 12:16 | 43.06200 | 74.48759 | 2073 ft | 19 kts | 51° |
| 2026-04-21 12:16 | 43.06273 | 74.48912 | 2072 ft | 20 kts | 74° |
| 2026-04-21 12:17 | 43.06301 | 74.49105 | 2073 ft | 22 kts | 79° |
| 2026-04-21 12:17 | 43.06330 | 74.49327 | 2073 ft | 25 kts | 80° |
| 2026-04-21 12:17 | 43.06362 | 74.49577 | 2076 ft | 28 kts | 79° |
| 2026-04-21 12:17 | 43.06398 | 74.49847 | 2075 ft | 29 kts | 79° |
| 2026-04-21 12:18 | 43.06428 | 74.50070 | 2074 ft | 8 kts | 81° |
| 2026-04-21 12:18 | 43.06423 | 74.50147 | 2072 ft | 9 kts | 112° |
| 2026-04-21 12:18 | 43.06392 | 74.50233 | 2073 ft | 10 kts | 97° |
| 2026-04-21 12:18 | 43.06439 | 74.50283 | 2075 ft | 11 kts | 327° |
| 2026-04-21 12:19 | 43.06439 | 74.50178 | 2073 ft | 12 kts | 259° |
| 2026-04-21 12:19 | 43.06406 | 74.49917 | 2075 ft | 61 kts | 260° |
| 2026-04-21 12:19 | 43.06287 | 74.48996 | 2073 ft | 132 kts | 260° |
| 2026-04-21 12:19 | 43.06100 | 74.47545 | 2073 ft | 177 kts | 259° |
| 2026-04-21 12:20 | 43.05870 | 74.45785 | 2519 ft | 188 kts | 261° |
| 2026-04-21 12:20 | 43.05641 | 74.44022 | 3314 ft | 187 kts | 267° |
| 2026-04-21 12:20 | 43.05916 | 74.42350 | 3988 ft | 185 kts | 302° |
| 2026-04-21 12:20 | 43.06587 | 74.40829 | 4721 ft | 189 kts | 302° |
| 2026-04-21 12:21 | 43.07181 | 74.39139 | 5228 ft | 208 kts | 292° |
| 2026-04-21 12:21 | 43.07732 | 74.37217 | 5711 ft | 226 kts | 292° |
| 2026-04-21 12:21 | 43.08381 | 74.35146 | 6072 ft | 249 kts | 297° |
| 2026-04-21 12:21 | 43.09519 | 74.33235 | 6415 ft | 271 kts | 322° |
| 2026-04-21 12:22 | 43.11211 | 74.32020 | 7066 ft | 278 kts | 336° |
| 2026-04-21 12:22 | 43.13023 | 74.31048 | 7834 ft | 282 kts | 337° |
| 2026-04-21 12:22 | 43.14859 | 74.30069 | 8620 ft | 284 kts | 336° |
| 2026-04-21 12:22 | 43.16716 | 74.29057 | 9423 ft | 287 kts | 335° |
| 2026-04-21 12:23 | 43.18575 | 74.28030 | 10166 ft | 292 kts | 334° |
| 2026-04-21 12:23 | 43.20494 | 74.26955 | 10530 ft | 311 kts | 334° |
| 2026-04-21 12:23 | 43.22556 | 74.25796 | 10814 ft | 331 kts | 334° |
| 2026-04-21 12:23 | 43.24755 | 74.24554 | 11082 ft | 350 kts | 334° |
| 2026-04-21 12:24 | 43.27064 | 74.23251 | 11440 ft | 364 kts | 334° |
| 2026-04-21 12:24 | 43.29428 | 74.21916 | 12070 ft | 369 kts | 334° |
| 2026-04-21 12:24 | 43.31801 | 74.20546 | 12760 ft | 370 kts | 331° |
| 2026-04-21 12:24 | 43.33963 | 74.18689 | 13479 ft | 365 kts | 317° |
| 2026-04-21 12:25 | 43.35894 | 74.16429 | 14129 ft | 366 kts | 314° |
| 2026-04-21 12:25 | 43.37808 | 74.14102 | 14718 ft | 368 kts | 314° |
| 2026-04-21 12:25 | 43.39736 | 74.11769 | 15280 ft | 371 kts | 314° |
| 2026-04-21 12:25 | 43.41688 | 74.09421 | 15835 ft | 374 kts | 315° |
| 2026-04-21 12:26 | 43.43661 | 74.07055 | 16373 ft | 376 kts | 315° |
| 2026-04-21 12:26 | 43.45643 | 74.04686 | 16905 ft | 379 kts | 315° |
| 2026-04-21 12:26 | 43.47640 | 74.02291 | 17440 ft | 382 kts | 315° |
| 2026-04-21 12:26 | 43.49629 | 73.99903 | 17969 ft | 385 kts | 315° |
| 2026-04-21 12:27 | 43.51651 | 73.97473 | 18436 ft | 388 kts | 315° |
| 2026-04-21 12:27 | 43.53687 | 73.95022 | 18874 ft | 390 kts | 315° |
| 2026-04-21 12:27 | 43.55740 | 73.92548 | 19310 ft | 393 kts | 315° |
| 2026-04-21 12:27 | 43.57791 | 73.90026 | 19753 ft | 394 kts | 313° |
| 2026-04-21 12:28 | 43.59799 | 73.87439 | 20190 ft | 397 kts | 313° |
| 2026-04-21 12:28 | 43.61144 | 73.85708 | 20487 ft | 398 kts | 313° |
| 2026-04-21 12:28 | 43.63178 | 73.83089 | 20914 ft | 401 kts | 313° |
| 2026-04-21 12:28 | 43.65219 | 73.80458 | 21365 ft | 403 kts | 313° |
| 2026-04-21 12:29 | 43.67237 | 73.77752 | 21798 ft | 404 kts | 309° |
| 2026-04-21 12:29 | 43.68936 | 73.74659 | 22227 ft | 402 kts | 298° |
| 2026-04-21 12:29 | 43.70136 | 73.71174 | 22661 ft | 402 kts | 287° |
| 2026-04-21 12:29 | 43.70859 | 73.67449 | 23099 ft | 403 kts | 281° |
| 2026-04-21 12:30 | 43.71450 | 73.63649 | 23531 ft | 405 kts | 281° |
| 2026-04-21 12:30 | 43.72028 | 73.59882 | 23932 ft | 406 kts | 281° |
| 2026-04-21 12:30 | 43.72632 | 73.56023 | 24384 ft | 405 kts | 282° |
| 2026-04-21 12:30 | 43.73225 | 73.52264 | 24833 ft | 405 kts | 282° |
| 2026-04-21 12:31 | 43.74027 | 73.47187 | 25437 ft | 404 kts | 282° |
| 2026-04-21 12:31 | 43.74435 | 73.44622 | 25743 ft | 403 kts | 282° |
| 2026-04-21 12:31 | 43.75028 | 73.40880 | 26174 ft | 403 kts | 282° |
| 2026-04-21 12:31 | 43.75624 | 73.37095 | 26591 ft | 402 kts | 282° |
| 2026-04-21 12:32 | 43.76219 | 73.33321 | 26985 ft | 402 kts | 282° |
| 2026-04-21 12:32 | 43.76817 | 73.29545 | 27411 ft | 400 kts | 282° |
| 2026-04-21 12:32 | 43.77412 | 73.25787 | 27940 ft | 396 kts | 283° |
| 2026-04-21 12:32 | 43.77996 | 73.22092 | 28496 ft | 391 kts | 283° |
| 2026-04-21 12:33 | 43.78571 | 73.18441 | 29039 ft | 386 kts | 283° |
| 2026-04-21 12:33 | 43.79136 | 73.14828 | 29607 ft | 381 kts | 283° |
| 2026-04-21 12:33 | 43.79688 | 73.11265 | 30115 ft | 377 kts | 283° |
| 2026-04-21 12:33 | 43.80233 | 73.07769 | 30486 ft | 374 kts | 283° |
| 2026-04-21 12:34 | 43.80781 | 73.04250 | 30823 ft | 373 kts | 282° |
| 2026-04-21 12:34 | 43.81324 | 73.00747 | 31128 ft | 372 kts | 282° |
| 2026-04-21 12:34 | 43.81868 | 72.97229 | 31430 ft | 372 kts | 282° |
| 2026-04-21 12:34 | 43.82408 | 72.93731 | 31716 ft | 371 kts | 282° |
| 2026-04-21 12:35 | 43.82947 | 72.90235 | 31998 ft | 371 kts | 282° |
| 2026-04-21 12:35 | 43.83483 | 72.86742 | 32258 ft | 371 kts | 282° |
| 2026-04-21 12:35 | 43.84016 | 72.83257 | 32549 ft | 370 kts | 281° |
| 2026-04-21 12:35 | 43.84547 | 72.79771 | 32837 ft | 369 kts | 281° |
| 2026-04-21 12:36 | 43.85076 | 72.76295 | 33103 ft | 368 kts | 281° |
| 2026-04-21 12:36 | 43.85605 | 72.72822 | 33349 ft | 368 kts | 281° |
| 2026-04-21 12:36 | 43.86131 | 72.69357 | 33594 ft | 367 kts | 281° |
| 2026-04-21 12:36 | 43.86656 | 72.65899 | 33825 ft | 367 kts | 281° |
| 2026-04-21 12:37 | 43.87178 | 72.62455 | 33897 ft | 366 kts | 281° |
| 2026-04-21 12:37 | 43.88217 | 72.55556 | 33874 ft | 365 kts | 281° |
| 2026-04-21 12:38 | 43.89249 | 72.48668 | 33859 ft | 365 kts | 281° |
| 2026-04-21 12:38 | 43.90275 | 72.41813 | 33849 ft | 365 kts | 281° |
| 2026-04-21 12:39 | 43.91302 | 72.34902 | 33851 ft | 365 kts | 281° |
| 2026-04-21 12:39 | 43.92323 | 72.27993 | 33851 ft | 365 kts | 281° |
| 2026-04-21 12:40 | 43.93343 | 72.21090 | 33851 ft | 365 kts | 281° |
| 2026-04-21 12:40 | 43.94355 | 72.14168 | 33853 ft | 365 kts | 281° |
| 2026-04-21 12:41 | 43.95366 | 72.07260 | 33848 ft | 365 kts | 281° |
| 2026-04-21 12:41 | 43.96388 | 72.00244 | 33835 ft | 368 kts | 280° |
| 2026-04-21 12:42 | 43.97387 | 71.93349 | 33843 ft | 369 kts | 280° |
| 2026-04-21 12:42 | 43.98387 | 71.86407 | 33846 ft | 369 kts | 280° |
| 2026-04-21 12:43 | 43.99389 | 71.79422 | 33839 ft | 369 kts | 280° |
| 2026-04-21 12:43 | 44.00390 | 71.72434 | 33830 ft | 369 kts | 280° |
| 2026-04-21 12:44 | 44.01385 | 71.65446 | 33832 ft | 369 kts | 280° |
| 2026-04-21 12:44 | 44.02376 | 71.58453 | 33831 ft | 368 kts | 279° |
| 2026-04-21 12:45 | 44.03357 | 71.51488 | 33833 ft | 366 kts | 279° |
| 2026-04-21 12:45 | 44.04333 | 71.44536 | 33827 ft | 366 kts | 279° |
| 2026-04-21 12:46 | 44.05305 | 71.37596 | 33836 ft | 370 kts | 279° |
| 2026-04-21 12:46 | 44.06282 | 71.30577 | 33830 ft | 370 kts | 279° |
| 2026-04-21 12:47 | 44.07258 | 71.23545 | 33825 ft | 370 kts | 279° |
| 2026-04-21 12:47 | 44.08226 | 71.16525 | 33827 ft | 369 kts | 279° |
| 2026-04-21 12:48 | 44.09186 | 71.09517 | 33825 ft | 368 kts | 278° |
| 2026-04-21 12:48 | 44.10141 | 71.02520 | 33825 ft | 368 kts | 278° |
| 2026-04-21 12:49 | 44.11091 | 70.95529 | 33821 ft | 368 kts | 278° |
| 2026-04-21 12:49 | 44.12035 | 70.88570 | 33827 ft | 368 kts | 278° |
| 2026-04-21 12:50 | 44.12981 | 70.81569 | 33826 ft | 368 kts | 278° |
| 2026-04-21 12:50 | 44.13922 | 70.74564 | 33815 ft | 369 kts | 278° |
| 2026-04-21 12:51 | 44.14863 | 70.67535 | 33815 ft | 369 kts | 278° |
| 2026-04-21 12:51 | 44.15798 | 70.60495 | 33814 ft | 369 kts | 278° |
| 2026-04-21 12:52 | 44.16729 | 70.53463 | 33814 ft | 369 kts | 278° |
| 2026-04-21 12:52 | 44.17657 | 70.46431 | 33811 ft | 369 kts | 278° |
| 2026-04-21 12:53 | 44.18574 | 70.39436 | 33811 ft | 369 kts | 278° |
| 2026-04-21 12:53 | 44.19494 | 70.32400 | 33812 ft | 369 kts | 278° |
| 2026-04-21 12:54 | 44.20417 | 70.25350 | 33810 ft | 369 kts | 278° |
| 2026-04-21 12:54 | 44.21330 | 70.18322 | 33813 ft | 368 kts | 278° |
| 2026-04-21 12:55 | 44.22240 | 70.11279 | 33816 ft | 370 kts | 277° |
| 2026-04-21 12:55 | 44.23147 | 70.04211 | 33806 ft | 370 kts | 277° |
| 2026-04-21 12:56 | 44.24049 | 69.97181 | 33806 ft | 370 kts | 277° |
| 2026-04-21 12:56 | 44.24949 | 69.90111 | 33802 ft | 370 kts | 277° |
| 2026-04-21 12:57 | 44.25845 | 69.83047 | 33799 ft | 368 kts | 277° |
| 2026-04-21 12:57 | 44.26731 | 69.76023 | 33806 ft | 368 kts | 277° |
| 2026-04-21 12:58 | 44.27608 | 69.68993 | 33811 ft | 368 kts | 277° |
| 2026-04-21 12:58 | 44.28487 | 69.61963 | 33806 ft | 368 kts | 277° |
| 2026-04-21 12:59 | 44.29360 | 69.54931 | 33801 ft | 368 kts | 277° |
| 2026-04-21 12:59 | 44.30233 | 69.47879 | 33815 ft | 370 kts | 277° |
| 2026-04-21 13:00 | 44.31105 | 69.40793 | 33801 ft | 369 kts | 276° |
| 2026-04-21 13:00 | 44.31965 | 69.33741 | 33807 ft | 369 kts | 276° |
| 2026-04-21 13:01 | 44.32822 | 69.26682 | 33808 ft | 369 kts | 276° |
| 2026-04-21 13:01 | 44.33679 | 69.19600 | 33805 ft | 369 kts | 276° |
| 2026-04-21 13:02 | 44.34521 | 69.12581 | 33806 ft | 369 kts | 276° |
| 2026-04-21 13:02 | 44.35785 | 69.01988 | 33803 ft | 368 kts | 276° |
| 2026-04-21 13:03 | 44.36866 | 68.94974 | 33794 ft | 374 kts | 284° |
| 2026-04-21 13:03 | 44.39496 | 68.88554 | 33806 ft | 394 kts | 302° |
| 2026-04-21 13:04 | 44.43598 | 68.83247 | 33795 ft | 405 kts | 310° |
| 2026-04-21 13:04 | 44.47888 | 68.78119 | 33789 ft | 405 kts | 310° |
| 2026-04-21 13:05 | 44.52137 | 68.72952 | 33788 ft | 404 kts | 309° |
| 2026-04-21 13:05 | 44.56378 | 68.67776 | 33801 ft | 404 kts | 310° |
| 2026-04-21 13:06 | 44.60606 | 68.62595 | 33787 ft | 403 kts | 310° |
| 2026-04-21 13:06 | 44.64831 | 68.57405 | 33784 ft | 404 kts | 310° |
| 2026-04-21 13:07 | 44.69054 | 68.52209 | 33782 ft | 403 kts | 310° |
| 2026-04-21 13:07 | 44.73275 | 68.47006 | 33793 ft | 402 kts | 310° |
| 2026-04-21 13:08 | 44.77482 | 68.41813 | 33776 ft | 402 kts | 310° |
| 2026-04-21 13:08 | 44.81656 | 68.36648 | 33776 ft | 402 kts | 310° |
| 2026-04-21 13:09 | 44.85850 | 68.31429 | 33776 ft | 402 kts | 310° |
| 2026-04-21 13:09 | 44.90064 | 68.26206 | 33777 ft | 403 kts | 310° |
| 2026-04-21 13:10 | 44.94284 | 68.20979 | 33773 ft | 404 kts | 309° |
| 2026-04-21 13:10 | 44.98491 | 68.15740 | 33771 ft | 404 kts | 309° |
| 2026-04-21 13:11 | 45.02698 | 68.10481 | 33774 ft | 404 kts | 309° |
| 2026-04-21 13:11 | 45.06908 | 68.05208 | 33770 ft | 404 kts | 309° |
| 2026-04-21 13:12 | 45.11082 | 67.99968 | 33768 ft | 404 kts | 309° |
| 2026-04-21 13:12 | 45.15289 | 67.94683 | 33754 ft | 405 kts | 309° |
| 2026-04-21 13:13 | 45.19522 | 67.89353 | 33761 ft | 408 kts | 309° |
| 2026-04-21 13:13 | 45.23762 | 67.83985 | 33768 ft | 409 kts | 309° |
| 2026-04-21 13:14 | 45.28011 | 67.78615 | 33763 ft | 409 kts | 309° |
| 2026-04-21 13:14 | 45.32258 | 67.73237 | 33759 ft | 409 kts | 309° |
| 2026-04-21 13:15 | 45.35785 | 67.68751 | 33756 ft | 409 kts | 309° |
| 2026-04-21 13:15 | 45.40708 | 67.62488 | 33757 ft | 408 kts | 309° |
| 2026-04-21 13:16 | 45.44251 | 67.57972 | 33754 ft | 408 kts | 309° |
| 2026-04-21 13:16 | 45.48453 | 67.52601 | 33755 ft | 408 kts | 309° |
| 2026-04-21 13:17 | 45.52674 | 67.47188 | 33738 ft | 408 kts | 309° |
| 2026-04-21 13:17 | 45.56900 | 67.41762 | 33740 ft | 409 kts | 309° |
| 2026-04-21 13:18 | 45.61137 | 67.36319 | 33736 ft | 409 kts | 309° |
| 2026-04-21 13:18 | 45.65363 | 67.30870 | 33741 ft | 409 kts | 309° |
| 2026-04-21 13:19 | 45.69589 | 67.25413 | 33738 ft | 409 kts | 309° |
| 2026-04-21 13:19 | 45.73821 | 67.19937 | 33740 ft | 409 kts | 309° |
| 2026-04-21 13:20 | 45.78003 | 67.14503 | 33734 ft | 409 kts | 309° |
| 2026-04-21 13:20 | 45.82227 | 67.09024 | 33735 ft | 409 kts | 309° |
| 2026-04-21 13:21 | 45.86435 | 67.03529 | 33734 ft | 409 kts | 309° |
| 2026-04-21 13:21 | 45.90644 | 66.98038 | 33739 ft | 408 kts | 309° |
| 2026-04-21 13:22 | 45.94846 | 66.92547 | 33729 ft | 408 kts | 309° |
| 2026-04-21 13:22 | 45.99043 | 66.87042 | 33728 ft | 408 kts | 309° |
| 2026-04-21 13:23 | 46.03233 | 66.81538 | 33726 ft | 408 kts | 309° |
| 2026-04-21 13:23 | 46.07398 | 66.76057 | 33721 ft | 409 kts | 309° |
| 2026-04-21 13:24 | 46.11619 | 66.70485 | 33718 ft | 412 kts | 309° |
| 2026-04-21 13:24 | 46.15845 | 66.64899 | 33721 ft | 412 kts | 309° |
| 2026-04-21 13:25 | 46.20068 | 66.59306 | 33720 ft | 412 kts | 309° |
| 2026-04-21 13:25 | 46.24294 | 66.53692 | 33715 ft | 412 kts | 309° |
| 2026-04-21 13:26 | 46.28509 | 66.48080 | 33713 ft | 412 kts | 308° |
| 2026-04-21 13:26 | 46.32724 | 66.42460 | 33711 ft | 412 kts | 309° |
| 2026-04-21 13:27 | 46.36903 | 66.36866 | 33711 ft | 412 kts | 308° |
| 2026-04-21 13:27 | 46.41101 | 66.31250 | 33723 ft | 410 kts | 309° |
| 2026-04-21 13:28 | 46.45294 | 66.25624 | 33718 ft | 410 kts | 309° |
| 2026-04-21 13:28 | 46.49474 | 66.19989 | 33718 ft | 410 kts | 309° |
| 2026-04-21 13:29 | 46.53644 | 66.14326 | 33717 ft | 410 kts | 309° |
| 2026-04-21 13:29 | 46.57829 | 66.08667 | 33726 ft | 411 kts | 309° |
| 2026-04-21 13:30 | 46.61985 | 66.03038 | 33719 ft | 410 kts | 309° |
| 2026-04-21 13:30 | 46.66168 | 65.97367 | 33719 ft | 411 kts | 309° |
| 2026-04-21 13:31 | 46.70339 | 65.91702 | 33722 ft | 410 kts | 309° |
| 2026-04-21 13:31 | 46.74454 | 65.85954 | 33727 ft | 407 kts | 306° |
| 2026-04-21 13:32 | 46.78283 | 65.79864 | 33726 ft | 406 kts | 305° |
| 2026-04-21 13:32 | 46.82070 | 65.73804 | 33731 ft | 406 kts | 305° |
| 2026-04-21 13:33 | 46.85886 | 65.67699 | 33732 ft | 406 kts | 305° |
| 2026-04-21 13:33 | 46.89707 | 65.61585 | 33744 ft | 408 kts | 305° |
| 2026-04-21 13:34 | 46.93538 | 65.55430 | 33731 ft | 409 kts | 305° |
| 2026-04-21 13:34 | 46.97343 | 65.49307 | 33741 ft | 409 kts | 305° |
| 2026-04-21 13:35 | 47.01170 | 65.43129 | 33744 ft | 410 kts | 305° |
| 2026-04-21 13:35 | 47.05003 | 65.36940 | 33759 ft | 411 kts | 305° |
| 2026-04-21 13:36 | 47.08842 | 65.30716 | 33753 ft | 411 kts | 305° |
| 2026-04-21 13:36 | 47.12673 | 65.24482 | 33746 ft | 411 kts | 305° |
| 2026-04-21 13:37 | 47.16513 | 65.18251 | 33750 ft | 412 kts | 305° |
| 2026-04-21 13:37 | 47.20360 | 65.12009 | 33765 ft | 412 kts | 305° |
| 2026-04-21 13:38 | 47.24207 | 65.05732 | 33752 ft | 413 kts | 305° |
| 2026-04-21 13:38 | 47.28021 | 64.99479 | 33751 ft | 414 kts | 305° |
| 2026-04-21 13:39 | 47.31862 | 64.93157 | 33753 ft | 414 kts | 305° |
| 2026-04-21 13:39 | 47.35688 | 64.86827 | 33754 ft | 413 kts | 305° |
| 2026-04-21 13:40 | 47.39524 | 64.80474 | 33770 ft | 415 kts | 305° |
| 2026-04-21 13:40 | 47.43368 | 64.74097 | 33755 ft | 415 kts | 305° |
| 2026-04-21 13:41 | 47.47200 | 64.67710 | 33757 ft | 415 kts | 305° |
| 2026-04-21 13:41 | 47.51029 | 64.61347 | 33756 ft | 415 kts | 305° |
| 2026-04-21 13:42 | 47.54855 | 64.54960 | 33771 ft | 416 kts | 305° |
| 2026-04-21 13:42 | 47.58695 | 64.48524 | 33759 ft | 417 kts | 305° |
| 2026-04-21 13:43 | 47.62543 | 64.42060 | 33762 ft | 418 kts | 305° |
| 2026-04-21 13:43 | 47.66394 | 64.35576 | 33761 ft | 418 kts | 305° |
| 2026-04-21 13:44 | 47.70213 | 64.29138 | 33773 ft | 418 kts | 305° |
| 2026-04-21 13:44 | 47.74062 | 64.22632 | 33767 ft | 419 kts | 305° |
| 2026-04-21 13:45 | 47.77905 | 64.16119 | 33763 ft | 419 kts | 305° |
| 2026-04-21 13:45 | 47.81745 | 64.09595 | 33764 ft | 419 kts | 305° |
| 2026-04-21 13:46 | 47.85582 | 64.03058 | 33767 ft | 419 kts | 305° |
| 2026-04-21 13:46 | 47.89415 | 63.96501 | 33775 ft | 419 kts | 305° |
| 2026-04-21 13:47 | 47.93243 | 63.89951 | 33771 ft | 419 kts | 305° |
| 2026-04-21 13:47 | 47.97066 | 63.83387 | 33771 ft | 419 kts | 305° |
| 2026-04-21 13:48 | 48.00870 | 63.76858 | 33772 ft | 419 kts | 305° |
| 2026-04-21 13:48 | 48.04688 | 63.70284 | 33789 ft | 418 kts | 305° |
| 2026-04-21 13:49 | 48.08490 | 63.63702 | 33773 ft | 418 kts | 304° |
| 2026-04-21 13:49 | 48.12292 | 63.57113 | 33770 ft | 418 kts | 304° |
| 2026-04-21 13:50 | 48.16091 | 63.50515 | 33773 ft | 418 kts | 304° |
| 2026-04-21 13:50 | 48.19888 | 63.43898 | 33801 ft | 418 kts | 304° |
| 2026-04-21 13:51 | 48.23646 | 63.37329 | 33772 ft | 417 kts | 304° |
| 2026-04-21 13:51 | 48.27435 | 63.30701 | 33765 ft | 418 kts | 304° |
| 2026-04-21 13:52 | 48.31221 | 63.24056 | 33770 ft | 418 kts | 304° |
| 2026-04-21 13:52 | 48.35001 | 63.17411 | 33762 ft | 418 kts | 304° |
| 2026-04-21 13:53 | 48.38774 | 63.10756 | 33769 ft | 418 kts | 304° |
| 2026-04-21 13:53 | 48.42523 | 63.04131 | 33762 ft | 418 kts | 304° |
| 2026-04-21 13:54 | 48.46290 | 62.97460 | 33768 ft | 418 kts | 304° |
| 2026-04-21 13:54 | 48.50060 | 62.90771 | 33768 ft | 418 kts | 304° |
| 2026-04-21 13:55 | 48.53815 | 62.84075 | 33785 ft | 418 kts | 304° |
| 2026-04-21 13:55 | 48.57565 | 62.77368 | 33769 ft | 418 kts | 304° |
| 2026-04-21 13:56 | 48.61316 | 62.70653 | 33766 ft | 418 kts | 303° |
| 2026-04-21 13:56 | 48.64356 | 62.63333 | 33769 ft | 408 kts | 291° |
| 2026-04-21 13:57 | 48.66875 | 62.55638 | 33766 ft | 408 kts | 291° |
| 2026-04-21 13:57 | 48.69402 | 62.47931 | 33773 ft | 408 kts | 291° |
| 2026-04-21 13:58 | 48.71932 | 62.40231 | 33764 ft | 408 kts | 291° |
| 2026-04-21 13:58 | 48.74439 | 62.32574 | 33763 ft | 409 kts | 291° |
| 2026-04-21 13:59 | 48.76963 | 62.24848 | 33761 ft | 408 kts | 291° |
| 2026-04-21 13:59 | 48.79476 | 62.17135 | 33760 ft | 408 kts | 291° |
| 2026-04-21 14:00 | 48.81989 | 62.09398 | 33784 ft | 408 kts | 290° |
| 2026-04-21 14:00 | 48.84497 | 62.01652 | 33767 ft | 409 kts | 290° |
| 2026-04-21 14:01 | 48.87001 | 61.93904 | 33761 ft | 409 kts | 290° |
| 2026-04-21 14:01 | 48.89495 | 61.86147 | 33759 ft | 409 kts | 290° |
| 2026-04-21 14:02 | 48.91987 | 61.78384 | 33758 ft | 409 kts | 290° |
| 2026-04-21 14:03 | 48.95695 | 61.66776 | 33775 ft | 409 kts | 290° |
| 2026-04-21 14:03 | 48.98176 | 61.58979 | 33764 ft | 409 kts | 289° |
| 2026-04-21 14:04 | 49.00653 | 61.51174 | 33762 ft | 409 kts | 290° |
| 2026-04-21 14:04 | 49.03128 | 61.43360 | 33764 ft | 410 kts | 290° |
| 2026-04-21 14:05 | 49.05601 | 61.35520 | 33764 ft | 409 kts | 289° |
| 2026-04-21 14:05 | 49.08058 | 61.27690 | 33767 ft | 409 kts | 289° |
| 2026-04-21 14:06 | 49.10498 | 61.19911 | 33775 ft | 409 kts | 289° |
| 2026-04-21 14:06 | 49.12942 | 61.12072 | 33764 ft | 409 kts | 289° |
| 2026-04-21 14:07 | 49.15386 | 61.04231 | 33767 ft | 409 kts | 289° |
| 2026-04-21 14:07 | 49.17826 | 60.96374 | 33770 ft | 409 kts | 289° |
| 2026-04-21 14:08 | 49.19852 | 60.89840 | 33775 ft | 409 kts | 289° |
| 2026-04-21 14:08 | 49.22279 | 60.81974 | 33799 ft | 409 kts | 289° |
| 2026-04-21 14:09 | 49.24702 | 60.74098 | 33785 ft | 409 kts | 289° |
| 2026-04-21 14:09 | 49.27125 | 60.66196 | 33789 ft | 409 kts | 289° |
| 2026-04-21 14:10 | 49.29529 | 60.58350 | 33791 ft | 409 kts | 288° |
| 2026-04-21 14:10 | 49.31921 | 60.50466 | 33788 ft | 409 kts | 288° |
| 2026-04-21 14:11 | 49.34339 | 60.42533 | 33788 ft | 409 kts | 288° |
| 2026-04-21 14:11 | 49.36739 | 60.34615 | 33804 ft | 409 kts | 288° |
| 2026-04-21 14:12 | 49.39122 | 60.26693 | 33796 ft | 409 kts | 288° |
| 2026-04-21 14:12 | 49.41491 | 60.18763 | 33790 ft | 408 kts | 288° |
| 2026-04-21 14:13 | 49.43875 | 60.10836 | 33788 ft | 409 kts | 288° |
| 2026-04-21 14:13 | 49.46255 | 60.02948 | 33788 ft | 409 kts | 288° |
| 2026-04-21 14:14 | 49.48628 | 59.94990 | 33818 ft | 409 kts | 288° |
| 2026-04-21 14:14 | 49.50995 | 59.87020 | 33792 ft | 410 kts | 287° |
| 2026-04-21 14:15 | 49.53358 | 59.79042 | 33795 ft | 410 kts | 287° |
| 2026-04-21 14:15 | 49.55714 | 59.71057 | 33798 ft | 409 kts | 287° |
| 2026-04-21 14:16 | 49.58064 | 59.63066 | 33795 ft | 409 kts | 287° |
| 2026-04-21 14:16 | 49.60405 | 59.55055 | 33798 ft | 409 kts | 287° |
| 2026-04-21 14:17 | 49.62734 | 59.47027 | 33810 ft | 410 kts | 287° |
| 2026-04-21 14:17 | 49.65076 | 59.38995 | 33809 ft | 410 kts | 287° |
| 2026-04-21 14:18 | 49.67404 | 59.31000 | 33805 ft | 410 kts | 287° |
| 2026-04-21 14:18 | 49.69732 | 59.22941 | 33808 ft | 411 kts | 287° |
| 2026-04-21 14:19 | 49.72056 | 59.14867 | 33813 ft | 411 kts | 287° |
| 2026-04-21 14:19 | 49.74380 | 59.06776 | 33818 ft | 411 kts | 287° |
| 2026-04-21 14:20 | 49.76697 | 58.98680 | 33821 ft | 411 kts | 287° |
| 2026-04-21 14:20 | 49.79005 | 58.90593 | 33820 ft | 411 kts | 287° |
| 2026-04-21 14:21 | 49.81310 | 58.82481 | 33821 ft | 411 kts | 286° |
| 2026-04-21 14:21 | 49.83590 | 58.74414 | 33823 ft | 411 kts | 287° |
| 2026-04-21 14:22 | 49.85886 | 58.66283 | 33825 ft | 411 kts | 286° |
| 2026-04-21 14:22 | 49.88171 | 58.58181 | 33840 ft | 409 kts | 286° |
| 2026-04-21 14:23 | 49.90441 | 58.50076 | 33832 ft | 409 kts | 286° |
| 2026-04-21 14:23 | 49.92695 | 58.41971 | 33836 ft | 409 kts | 286° |
| 2026-04-21 14:24 | 49.94951 | 58.33860 | 33838 ft | 409 kts | 286° |
| 2026-04-21 14:24 | 49.97204 | 58.25795 | 33835 ft | 409 kts | 286° |
| 2026-04-21 14:25 | 49.99452 | 58.17660 | 33875 ft | 409 kts | 285° |
| 2026-04-21 14:25 | 50.01684 | 58.09547 | 33843 ft | 408 kts | 285° |
| 2026-04-21 14:26 | 50.03919 | 58.01425 | 33843 ft | 408 kts | 285° |
| 2026-04-21 14:26 | 50.06139 | 57.93300 | 33841 ft | 408 kts | 285° |
| 2026-04-21 14:27 | 50.08349 | 57.85167 | 33842 ft | 408 kts | 285° |
| 2026-04-21 14:27 | 50.10552 | 57.77071 | 33841 ft | 408 kts | 285° |
| 2026-04-21 14:28 | 50.12756 | 57.68920 | 33866 ft | 408 kts | 285° |
| 2026-04-21 14:28 | 50.14957 | 57.60766 | 33840 ft | 409 kts | 285° |
| 2026-04-21 14:29 | 50.17153 | 57.52591 | 33840 ft | 409 kts | 285° |
| 2026-04-21 14:29 | 50.19339 | 57.44403 | 33847 ft | 409 kts | 285° |
| 2026-04-21 14:30 | 50.21535 | 57.36204 | 33854 ft | 409 kts | 285° |
| 2026-04-21 14:30 | 50.23741 | 57.28018 | 33845 ft | 411 kts | 287° |
| 2026-04-21 14:30 | 50.25177 | 57.24095 | 33858 ft | 422 kts | 297° |
| 2026-04-21 14:31 | 50.27096 | 57.20625 | 33850 ft | 434 kts | 309° |
| 2026-04-21 14:31 | 50.29540 | 57.17724 | 33848 ft | 448 kts | 321° |
| 2026-04-21 14:31 | 50.32407 | 57.15650 | 33848 ft | 463 kts | 334° |
| 2026-04-21 14:32 | 50.38693 | 57.13071 | 33851 ft | 468 kts | 338° |
| 2026-04-21 14:32 | 50.45010 | 57.10570 | 33852 ft | 467 kts | 338° |
| 2026-04-21 14:33 | 50.51303 | 57.08002 | 33853 ft | 465 kts | 338° |
| 2026-04-21 14:33 | 50.57560 | 57.05424 | 33845 ft | 465 kts | 338° |
| 2026-04-21 14:34 | 50.63782 | 57.02862 | 33841 ft | 465 kts | 338° |
| 2026-04-21 14:34 | 50.70044 | 57.00273 | 33877 ft | 465 kts | 338° |
| 2026-04-21 14:35 | 50.76302 | 56.97673 | 33844 ft | 465 kts | 338° |
| 2026-04-21 14:35 | 50.82561 | 56.95079 | 33844 ft | 465 kts | 338° |
| 2026-04-21 14:36 | 50.88819 | 56.92480 | 33845 ft | 464 kts | 338° |
| 2026-04-21 14:36 | 50.95071 | 56.89857 | 33881 ft | 464 kts | 338° |
| 2026-04-21 14:37 | 51.01322 | 56.87246 | 33849 ft | 464 kts | 338° |
| 2026-04-21 14:37 | 51.07246 | 56.83635 | 33834 ft | 447 kts | 321° |
| 2026-04-21 14:37 | 51.09702 | 56.80733 | 33834 ft | 435 kts | 310° |
| 2026-04-21 14:38 | 51.11729 | 56.77291 | 33849 ft | 430 kts | 303° |
| 2026-04-21 14:38 | 51.15543 | 56.69964 | 33866 ft | 430 kts | 302° |
| 2026-04-21 14:39 | 51.19381 | 56.62644 | 33846 ft | 430 kts | 302° |
| 2026-04-21 14:39 | 51.23209 | 56.55296 | 33842 ft | 430 kts | 302° |
| 2026-04-21 14:40 | 51.27039 | 56.47959 | 33840 ft | 430 kts | 302° |
| 2026-04-21 14:40 | 51.30871 | 56.40620 | 33841 ft | 430 kts | 303° |
| 2026-04-21 14:41 | 51.34721 | 56.33273 | 33852 ft | 431 kts | 302° |
| 2026-04-21 14:41 | 51.38565 | 56.25913 | 33843 ft | 431 kts | 302° |
| 2026-04-21 14:42 | 51.42388 | 56.18515 | 33844 ft | 431 kts | 302° |
| 2026-04-21 14:42 | 51.46195 | 56.11173 | 33842 ft | 431 kts | 302° |
| 2026-04-21 14:43 | 51.50023 | 56.03758 | 33838 ft | 431 kts | 302° |
| 2026-04-21 14:43 | 51.53836 | 55.96323 | 33836 ft | 431 kts | 301° |
| 2026-04-21 14:44 | 51.57645 | 55.88892 | 33842 ft | 431 kts | 302° |
| 2026-04-21 14:44 | 51.61452 | 55.81454 | 33850 ft | 430 kts | 301° |
| 2026-04-21 14:45 | 51.65255 | 55.73997 | 33857 ft | 430 kts | 301° |
| 2026-04-21 14:45 | 51.69020 | 55.66573 | 33886 ft | 431 kts | 301° |
| 2026-04-21 14:46 | 51.72822 | 55.59080 | 33878 ft | 432 kts | 301° |
| 2026-04-21 14:46 | 51.76620 | 55.51570 | 33878 ft | 432 kts | 301° |
| 2026-04-21 14:47 | 51.80380 | 55.44002 | 33874 ft | 430 kts | 300° |
| 2026-04-21 14:47 | 51.84019 | 55.36322 | 33921 ft | 430 kts | 299° |